sensor_id;sensor_type;location;lat;lon;timestamp;pressure;altitude;pressure_sealevel;temperature;humidity
36138;BME280;67787;50.074;21.904;2024-03-08T00:00:15;99793.05;;;0.53;69.81
36138;BME280;67787;50.074;21.904;2024-03-08T00:03:06;99793.89;;;0.46;69.68
36138;BME280;67787;50.074;21.904;2024-03-08T00:05:34;99790.34;;;0.39;69.62
36138;BME280;67787;50.074;21.904;2024-03-08T00:08:02;99788.92;;;0.32;69.63
36138;BME280;67787;50.074;21.904;2024-03-08T00:10:30;99790.59;;;0.26;69.68
36138;BME280;67787;50.074;21.904;2024-03-08T00:12:58;99786.14;;;0.22;69.96
36138;BME280;67787;50.074;21.904;2024-03-08T00:15:26;99786.42;;;0.16;69.79
36138;BME280;67787;50.074;21.904;2024-03-08T00:17:54;99790.89;;;0.09;69.78
36138;BME280;67787;50.074;21.904;2024-03-08T00:20:22;99792.07;;;0.02;69.66
36138;BME280;67787;50.074;21.904;2024-03-08T00:22:51;99792.05;;;-0.06;69.64
36138;BME280;67787;50.074;21.904;2024-03-08T00:25:19;99789.20;;;-0.13;69.58
36138;BME280;67787;50.074;21.904;2024-03-08T00:27:46;99793.13;;;-0.19;69.66
36138;BME280;67787;50.074;21.904;2024-03-08T00:30:17;99790.42;;;-0.23;69.65
36138;BME280;67787;50.074;21.904;2024-03-08T00:36:51;99787.99;;;-0.35;69.62
36138;BME280;67787;50.074;21.904;2024-03-08T00:39:20;99785.48;;;-0.41;69.75
36138;BME280;67787;50.074;21.904;2024-03-08T00:41:48;99782.09;;;-0.47;69.71
36138;BME280;67787;50.074;21.904;2024-03-08T00:44:16;99783.91;;;-0.52;69.65
36138;BME280;67787;50.074;21.904;2024-03-08T00:46:44;99786.61;;;-0.58;69.54
36138;BME280;67787;50.074;21.904;2024-03-08T00:49:12;99781.83;;;-0.64;69.69
36138;BME280;67787;50.074;21.904;2024-03-08T00:51:40;99782.93;;;-0.67;69.60
36138;BME280;67787;50.074;21.904;2024-03-08T00:54:07;99782.30;;;-0.72;69.74
36138;BME280;67787;50.074;21.904;2024-03-08T00:56:36;99782.86;;;-0.75;69.63
36138;BME280;67787;50.074;21.904;2024-03-08T00:59:06;99777.67;;;-0.78;69.58
36138;BME280;67787;50.074;21.904;2024-03-08T01:01:34;99776.82;;;-0.79;69.90
36138;BME280;67787;50.074;21.904;2024-03-08T01:04:02;99777.68;;;-0.79;69.77
36138;BME280;67787;50.074;21.904;2024-03-08T01:06:30;99779.11;;;-0.81;69.56
36138;BME280;67787;50.074;21.904;2024-03-08T01:08:58;99776.05;;;-0.85;69.70
36138;BME280;67787;50.074;21.904;2024-03-08T01:11:26;99776.27;;;-0.88;69.89
36138;BME280;67787;50.074;21.904;2024-03-08T01:13:56;99778.55;;;-0.90;69.79
36138;BME280;67787;50.074;21.904;2024-03-08T01:16:23;99777.70;;;-0.91;69.73
36138;BME280;67787;50.074;21.904;2024-03-08T01:18:51;99773.36;;;-0.92;69.97
36138;BME280;67787;50.074;21.904;2024-03-08T01:21:19;99769.89;;;-0.93;69.87
36138;BME280;67787;50.074;21.904;2024-03-08T01:23:47;99768.70;;;-0.96;69.78
36138;BME280;67787;50.074;21.904;2024-03-08T01:26:15;99764.55;;;-0.98;69.86
36138;BME280;67787;50.074;21.904;2024-03-08T01:28:43;99766.80;;;-0.96;69.74
36138;BME280;67787;50.074;21.904;2024-03-08T01:31:11;99763.30;;;-0.95;69.96
36138;BME280;67787;50.074;21.904;2024-03-08T01:33:40;99760.52;;;-0.96;69.78
36138;BME280;67787;50.074;21.904;2024-03-08T01:36:08;99765.60;;;-0.97;69.89
36138;BME280;67787;50.074;21.904;2024-03-08T01:38:36;99761.14;;;-1.02;69.96
36138;BME280;67787;50.074;21.904;2024-03-08T01:41:04;99760.49;;;-1.06;69.85
36138;BME280;67787;50.074;21.904;2024-03-08T01:43:32;99756.74;;;-1.12;69.94
36138;BME280;67787;50.074;21.904;2024-03-08T01:46:01;99756.77;;;-1.14;69.73
36138;BME280;67787;50.074;21.904;2024-03-08T01:48:29;99759.93;;;-1.16;70.06
36138;BME280;67787;50.074;21.904;2024-03-08T01:50:58;99757.52;;;-1.17;69.86
36138;BME280;67787;50.074;21.904;2024-03-08T01:53:26;99755.92;;;-1.16;70.13
36138;BME280;67787;50.074;21.904;2024-03-08T01:55:57;99753.83;;;-1.15;70.01
36138;BME280;67787;50.074;21.904;2024-03-08T01:58:27;99753.52;;;-1.17;70.32
36138;BME280;67787;50.074;21.904;2024-03-08T02:00:57;99751.97;;;-1.20;70.17
36138;BME280;67787;50.074;21.904;2024-03-08T02:03:27;99749.62;;;-1.25;70.03
36138;BME280;67787;50.074;21.904;2024-03-08T02:05:55;99747.57;;;-1.28;70.20
36138;BME280;67787;50.074;21.904;2024-03-08T02:08:23;99747.05;;;-1.29;70.20
36138;BME280;67787;50.074;21.904;2024-03-08T02:10:51;99744.13;;;-1.31;70.02
36138;BME280;67787;50.074;21.904;2024-03-08T02:13:19;99746.60;;;-1.35;70.02
36138;BME280;67787;50.074;21.904;2024-03-08T02:15:55;99742.30;;;-1.38;70.17
36138;BME280;67787;50.074;21.904;2024-03-08T02:18:23;99742.29;;;-1.37;70.40
36138;BME280;67787;50.074;21.904;2024-03-08T02:20:52;99740.52;;;-1.35;70.27
36138;BME280;67787;50.074;21.904;2024-03-08T02:23:21;99741.54;;;-1.34;70.31
36138;BME280;67787;50.074;21.904;2024-03-08T02:25:49;99735.98;;;-1.35;70.14
36138;BME280;67787;50.074;21.904;2024-03-08T02:28:17;99737.05;;;-1.37;70.11
36138;BME280;67787;50.074;21.904;2024-03-08T02:30:52;99735.17;;;-1.39;70.28
36138;BME280;67787;50.074;21.904;2024-03-08T02:33:27;99734.13;;;-1.39;70.24
36138;BME280;67787;50.074;21.904;2024-03-08T02:35:55;99735.17;;;-1.40;70.42
36138;BME280;67787;50.074;21.904;2024-03-08T02:38:24;99729.33;;;-1.44;70.11
36138;BME280;67787;50.074;21.904;2024-03-08T02:40:53;99734.92;;;-1.46;70.40
36138;BME280;67787;50.074;21.904;2024-03-08T02:43:22;99734.89;;;-1.44;70.45
36138;BME280;67787;50.074;21.904;2024-03-08T02:45:52;99736.41;;;-1.41;70.41
36138;BME280;67787;50.074;21.904;2024-03-08T02:48:21;99735.23;;;-1.43;70.37
36138;BME280;67787;50.074;21.904;2024-03-08T02:50:51;99734.71;;;-1.43;70.51
36138;BME280;67787;50.074;21.904;2024-03-08T02:53:19;99734.38;;;-1.44;70.40
36138;BME280;67787;50.074;21.904;2024-03-08T02:55:47;99734.08;;;-1.49;70.12
36138;BME280;67787;50.074;21.904;2024-03-08T02:58:15;99737.45;;;-1.54;70.21
36138;BME280;67787;50.074;21.904;2024-03-08T03:00:43;99735.05;;;-1.56;70.49
36138;BME280;67787;50.074;21.904;2024-03-08T03:03:11;99733.49;;;-1.58;70.64
36138;BME280;67787;50.074;21.904;2024-03-08T03:05:39;99736.10;;;-1.58;70.54
36138;BME280;67787;50.074;21.904;2024-03-08T03:08:15;99737.49;;;-1.58;70.43
36138;BME280;67787;50.074;21.904;2024-03-08T03:10:45;99738.40;;;-1.61;70.52
36138;BME280;67787;50.074;21.904;2024-03-08T03:13:13;99737.58;;;-1.64;70.41
36138;BME280;67787;50.074;21.904;2024-03-08T03:15:42;99743.66;;;-1.64;70.62
36138;BME280;67787;50.074;21.904;2024-03-08T03:18:10;99744.71;;;-1.65;70.43
36138;BME280;67787;50.074;21.904;2024-03-08T03:20:38;99744.69;;;-1.62;70.51
36138;BME280;67787;50.074;21.904;2024-03-08T03:23:11;99746.11;;;-1.65;70.37
36138;BME280;67787;50.074;21.904;2024-03-08T03:25:43;99749.98;;;-1.69;70.54
36138;BME280;67787;50.074;21.904;2024-03-08T03:28:11;99751.59;;;-1.73;70.51
36138;BME280;67787;50.074;21.904;2024-03-08T03:30:44;99747.65;;;-1.77;70.61
36138;BME280;67787;50.074;21.904;2024-03-08T03:33:14;99746.30;;;-1.82;70.22
36138;BME280;67787;50.074;21.904;2024-03-08T03:35:44;99748.08;;;-1.84;70.88
36138;BME280;67787;50.074;21.904;2024-03-08T03:38:13;99747.15;;;-1.81;70.67
36138;BME280;67787;50.074;21.904;2024-03-08T03:40:42;99752.13;;;-1.75;70.72
36138;BME280;67787;50.074;21.904;2024-03-08T03:43:10;99753.10;;;-1.68;70.91
36138;BME280;67787;50.074;21.904;2024-03-08T03:45:39;99750.65;;;-1.65;71.04
36138;BME280;67787;50.074;21.904;2024-03-08T03:48:09;99747.33;;;-1.65;71.04
36138;BME280;67787;50.074;21.904;2024-03-08T03:50:39;99748.89;;;-1.65;70.60
36138;BME280;67787;50.074;21.904;2024-03-08T03:53:08;99748.91;;;-1.67;70.90
36138;BME280;67787;50.074;21.904;2024-03-08T03:55:38;99745.59;;;-1.65;70.83
36138;BME280;67787;50.074;21.904;2024-03-08T03:58:08;99745.02;;;-1.62;70.97
36138;BME280;67787;50.074;21.904;2024-03-08T04:00:39;99744.17;;;-1.63;70.47
36138;BME280;67787;50.074;21.904;2024-03-08T04:03:08;99741.95;;;-1.66;70.76
36138;BME280;67787;50.074;21.904;2024-03-08T04:05:37;99736.39;;;-1.67;70.70
36138;BME280;67787;50.074;21.904;2024-03-08T04:08:05;99736.61;;;-1.71;70.96
36138;BME280;67787;50.074;21.904;2024-03-08T04:10:33;99735.25;;;-1.73;70.97
36138;BME280;67787;50.074;21.904;2024-03-08T04:13:01;99734.58;;;-1.75;70.55
36138;BME280;67787;50.074;21.904;2024-03-08T04:15:30;99732.86;;;-1.77;70.54
36138;BME280;67787;50.074;21.904;2024-03-08T04:17:58;99732.19;;;-1.80;70.64
36138;BME280;67787;50.074;21.904;2024-03-08T04:20:28;99730.96;;;-1.80;70.91
36138;BME280;67787;50.074;21.904;2024-03-08T04:22:56;99729.41;;;-1.82;70.84
36138;BME280;67787;50.074;21.904;2024-03-08T04:25:24;99726.63;;;-1.81;70.96
36138;BME280;67787;50.074;21.904;2024-03-08T04:27:52;99723.52;;;-1.83;70.84
36138;BME280;67787;50.074;21.904;2024-03-08T04:30:20;99720.27;;;-1.86;70.75
36138;BME280;67787;50.074;21.904;2024-03-08T04:32:49;99723.05;;;-1.86;70.90
36138;BME280;67787;50.074;21.904;2024-03-08T04:35:17;99721.98;;;-1.83;70.99
36138;BME280;67787;50.074;21.904;2024-03-08T04:37:45;99723.55;;;-1.85;70.80
36138;BME280;67787;50.074;21.904;2024-03-08T04:40:13;99723.25;;;-1.89;70.75
36138;BME280;67787;50.074;21.904;2024-03-08T04:42:42;99723.98;;;-1.91;70.91
36138;BME280;67787;50.074;21.904;2024-03-08T04:45:10;99728.85;;;-1.92;71.11
36138;BME280;67787;50.074;21.904;2024-03-08T04:47:41;99732.66;;;-1.91;71.05
36138;BME280;67787;50.074;21.904;2024-03-08T04:50:09;99733.19;;;-1.92;71.08
36138;BME280;67787;50.074;21.904;2024-03-08T04:52:39;99733.73;;;-1.92;70.94
36138;BME280;67787;50.074;21.904;2024-03-08T04:55:06;99730.77;;;-1.92;71.22
36138;BME280;67787;50.074;21.904;2024-03-08T04:57:35;99728.71;;;-1.96;70.85
36138;BME280;67787;50.074;21.904;2024-03-08T05:00:03;99727.73;;;-2.01;70.86
36138;BME280;67787;50.074;21.904;2024-03-08T05:02:38;99731.92;;;-2.03;71.09
36138;BME280;67787;50.074;21.904;2024-03-08T05:08:37;99732.33;;;-2.08;70.69
36138;BME280;67787;50.074;21.904;2024-03-08T05:11:05;99732.38;;;-2.13;71.02
36138;BME280;67787;50.074;21.904;2024-03-08T05:13:35;99732.54;;;-2.11;71.21
36138;BME280;67787;50.074;21.904;2024-03-08T05:16:03;99735.12;;;-2.09;71.24
36138;BME280;67787;50.074;21.904;2024-03-08T05:18:31;99738.27;;;-2.12;70.93
36138;BME280;67787;50.074;21.904;2024-03-08T05:21:00;99747.34;;;-2.15;70.92
36138;BME280;67787;50.074;21.904;2024-03-08T05:23:28;99746.66;;;-2.18;71.07
36138;BME280;67787;50.074;21.904;2024-03-08T05:25:57;99742.16;;;-2.19;71.04
36138;BME280;67787;50.074;21.904;2024-03-08T05:28:25;99748.56;;;-2.16;71.33
36138;BME280;67787;50.074;21.904;2024-03-08T05:30:53;99747.64;;;-2.10;71.39
36138;BME280;67787;50.074;21.904;2024-03-08T05:33:24;99748.77;;;-2.03;71.27
36138;BME280;67787;50.074;21.904;2024-03-08T05:35:52;99747.94;;;-2.05;70.99
36138;BME280;67787;50.074;21.904;2024-03-08T05:38:20;99752.11;;;-2.06;71.07
36138;BME280;67787;50.074;21.904;2024-03-08T05:40:48;99755.41;;;-2.05;70.99
36138;BME280;67787;50.074;21.904;2024-03-08T05:43:16;99757.13;;;-2.04;70.87
36138;BME280;67787;50.074;21.904;2024-03-08T05:45:47;99763.92;;;-2.04;71.41
36138;BME280;67787;50.074;21.904;2024-03-08T05:48:15;99764.95;;;-2.02;70.92
36138;BME280;67787;50.074;21.904;2024-03-08T05:50:43;99764.45;;;-2.04;70.93
36138;BME280;67787;50.074;21.904;2024-03-08T05:53:11;99765.63;;;-2.02;71.23
36138;BME280;67787;50.074;21.904;2024-03-08T05:55:40;99763.34;;;-1.99;71.30
36138;BME280;67787;50.074;21.904;2024-03-08T05:58:08;99765.55;;;-1.94;71.13
36138;BME280;67787;50.074;21.904;2024-03-08T06:00:39;99764.32;;;-1.92;71.54
36138;BME280;67787;50.074;21.904;2024-03-08T06:03:07;99765.67;;;-1.88;71.24
36138;BME280;67787;50.074;21.904;2024-03-08T06:05:35;99765.84;;;-1.88;71.40
36138;BME280;67787;50.074;21.904;2024-03-08T06:08:04;99765.30;;;-1.86;71.49
36138;BME280;67787;50.074;21.904;2024-03-08T06:10:32;99765.56;;;-1.80;71.54
36138;BME280;67787;50.074;21.904;2024-03-08T06:13:00;99768.48;;;-1.75;71.44
36138;BME280;67787;50.074;21.904;2024-03-08T06:15:29;99761.00;;;-1.75;71.22
36138;BME280;67787;50.074;21.904;2024-03-08T06:18:01;99762.89;;;-1.73;71.71
36138;BME280;67787;50.074;21.904;2024-03-08T06:20:30;99763.20;;;-1.70;71.67
36138;BME280;67787;50.074;21.904;2024-03-08T06:22:58;99762.31;;;-1.68;71.69
36138;BME280;67787;50.074;21.904;2024-03-08T06:25:27;99766.27;;;-1.64;71.91
36138;BME280;67787;50.074;21.904;2024-03-08T06:27:55;99768.83;;;-1.60;71.76
36138;BME280;67787;50.074;21.904;2024-03-08T06:30:23;99766.89;;;-1.58;71.83
36138;BME280;67787;50.074;21.904;2024-03-08T06:32:54;99766.70;;;-1.57;71.89
36138;BME280;67787;50.074;21.904;2024-03-08T06:35:22;99769.94;;;-1.51;71.71
36138;BME280;67787;50.074;21.904;2024-03-08T06:37:50;99765.88;;;-1.44;71.92
36138;BME280;67787;50.074;21.904;2024-03-08T06:40:18;99763.90;;;-1.41;71.91
36138;BME280;67787;50.074;21.904;2024-03-08T06:42:46;99764.27;;;-1.42;71.72
36138;BME280;67787;50.074;21.904;2024-03-08T06:45:14;99765.34;;;-1.43;71.79
36138;BME280;67787;50.074;21.904;2024-03-08T06:47:47;99765.09;;;-1.38;72.05
36138;BME280;67787;50.074;21.904;2024-03-08T06:50:15;99763.98;;;-1.33;71.99
36138;BME280;67787;50.074;21.904;2024-03-08T06:52:43;99759.44;;;-1.30;71.91
36138;BME280;67787;50.074;21.904;2024-03-08T06:55:12;99761.31;;;-1.28;72.11
36138;BME280;67787;50.074;21.904;2024-03-08T06:57:40;99760.58;;;-1.25;71.82
36138;BME280;67787;50.074;21.904;2024-03-08T07:00:09;99756.75;;;-1.25;72.08
36138;BME280;67787;50.074;21.904;2024-03-08T07:02:42;99757.90;;;-1.21;72.02
36138;BME280;67787;50.074;21.904;2024-03-08T07:05:13;99762.72;;;-1.16;71.98
36138;BME280;67787;50.074;21.904;2024-03-08T07:07:41;99762.86;;;-1.14;72.07
36138;BME280;67787;50.074;21.904;2024-03-08T07:10:09;99761.80;;;-1.13;72.02
36138;BME280;67787;50.074;21.904;2024-03-08T07:12:44;99763.85;;;-1.10;71.95
36138;BME280;67787;50.074;21.904;2024-03-08T07:15:12;99762.97;;;-1.09;72.13
36138;BME280;67787;50.074;21.904;2024-03-08T07:17:43;99761.51;;;-1.04;72.19
36138;BME280;67787;50.074;21.904;2024-03-08T07:20:15;99764.22;;;-0.99;72.35
36138;BME280;67787;50.074;21.904;2024-03-08T07:22:47;99765.71;;;-0.93;72.25
36138;BME280;67787;50.074;21.904;2024-03-08T07:25:21;99762.52;;;-0.88;72.14
36138;BME280;67787;50.074;21.904;2024-03-08T07:27:52;99759.68;;;-0.85;72.26
36138;BME280;67787;50.074;21.904;2024-03-08T07:30:22;99757.34;;;-0.81;72.22
36138;BME280;67787;50.074;21.904;2024-03-08T07:33:11;99756.34;;;-0.72;72.42
36138;BME280;67787;50.074;21.904;2024-03-08T07:35:42;99752.34;;;-0.62;72.42
36138;BME280;67787;50.074;21.904;2024-03-08T07:38:15;99750.17;;;-0.56;72.54
36138;BME280;67787;50.074;21.904;2024-03-08T07:40:44;99756.04;;;-0.52;72.34
36138;BME280;67787;50.074;21.904;2024-03-08T07:43:12;99752.16;;;-0.50;72.58
36138;BME280;67787;50.074;21.904;2024-03-08T07:45:40;99751.92;;;-0.46;72.57
36138;BME280;67787;50.074;21.904;2024-03-08T07:48:09;99755.52;;;-0.41;72.58
36138;BME280;67787;50.074;21.904;2024-03-08T07:50:39;99759.20;;;-0.33;72.66
36138;BME280;67787;50.074;21.904;2024-03-08T07:53:08;99755.04;;;-0.24;72.79
36138;BME280;67787;50.074;21.904;2024-03-08T07:55:36;99750.52;;;-0.14;72.70
36138;BME280;67787;50.074;21.904;2024-03-08T07:58:08;99750.05;;;-0.08;72.71
36138;BME280;67787;50.074;21.904;2024-03-08T08:00:39;99749.91;;;0.00;72.88
36138;BME280;67787;50.074;21.904;2024-03-08T08:03:06;99746.45;;;0.08;72.69
36138;BME280;67787;50.074;21.904;2024-03-08T08:05:36;99749.52;;;0.12;72.64
36138;BME280;67787;50.074;21.904;2024-03-08T08:08:08;99752.52;;;0.19;72.83
36138;BME280;67787;50.074;21.904;2024-03-08T08:10:39;99752.86;;;0.28;72.92
36138;BME280;67787;50.074;21.904;2024-03-08T08:13:07;99747.11;;;0.29;72.58
36138;BME280;67787;50.074;21.904;2024-03-08T08:15:35;99746.29;;;0.35;72.89
36138;BME280;67787;50.074;21.904;2024-03-08T08:18:03;99745.77;;;0.43;73.00
36138;BME280;67787;50.074;21.904;2024-03-08T08:20:34;99743.85;;;0.52;72.87
36138;BME280;67787;50.074;21.904;2024-03-08T08:23:02;99746.23;;;0.55;72.77
36138;BME280;67787;50.074;21.904;2024-03-08T08:25:30;99741.96;;;0.59;72.86
36138;BME280;67787;50.074;21.904;2024-03-08T08:27:59;99737.27;;;0.66;72.96
36138;BME280;67787;50.074;21.904;2024-03-08T08:30:26;99744.71;;;0.78;72.94
36138;BME280;67787;50.074;21.904;2024-03-08T08:32:55;99741.73;;;0.86;72.98
36138;BME280;67787;50.074;21.904;2024-03-08T08:35:28;99739.61;;;0.95;73.02
36138;BME280;67787;50.074;21.904;2024-03-08T08:37:57;99740.28;;;1.04;73.04
36138;BME280;67787;50.074;21.904;2024-03-08T08:40:26;99739.58;;;1.13;73.03
36138;BME280;67787;50.074;21.904;2024-03-08T08:42:57;99738.08;;;1.17;73.02
36138;BME280;67787;50.074;21.904;2024-03-08T08:45:26;99738.97;;;1.23;72.91
36138;BME280;67787;50.074;21.904;2024-03-08T08:47:54;99737.13;;;1.28;72.97
36138;BME280;67787;50.074;21.904;2024-03-08T08:50:23;99736.48;;;1.32;73.04
36138;BME280;67787;50.074;21.904;2024-03-08T08:52:52;99733.67;;;1.41;72.94
36138;BME280;67787;50.074;21.904;2024-03-08T08:55:23;99731.64;;;1.52;73.10
36138;BME280;67787;50.074;21.904;2024-03-08T08:57:54;99726.87;;;1.61;73.08
36138;BME280;67787;50.074;21.904;2024-03-08T09:00:22;99730.77;;;1.66;72.92
36138;BME280;67787;50.074;21.904;2024-03-08T09:03:05;99729.35;;;1.67;72.88
36138;BME280;67787;50.074;21.904;2024-03-08T09:06:07;99727.40;;;1.75;73.11
36138;BME280;67787;50.074;21.904;2024-03-08T09:08:41;99727.16;;;1.78;72.95
36138;BME280;67787;50.074;21.904;2024-03-08T09:11:09;99721.23;;;1.84;72.72
36138;BME280;67787;50.074;21.904;2024-03-08T09:13:38;99722.21;;;1.93;73.21
36138;BME280;67787;50.074;21.904;2024-03-08T09:16:06;99724.61;;;2.02;72.93
36138;BME280;67787;50.074;21.904;2024-03-08T09:18:35;99721.62;;;2.08;72.69
36138;BME280;67787;50.074;21.904;2024-03-08T09:21:03;99718.71;;;2.13;72.99
36138;BME280;67787;50.074;21.904;2024-03-08T09:23:32;99717.71;;;2.17;73.07
36138;BME280;67787;50.074;21.904;2024-03-08T09:26:00;99720.04;;;2.21;73.15
36138;BME280;67787;50.074;21.904;2024-03-08T09:28:30;99714.29;;;2.27;73.00
36138;BME280;67787;50.074;21.904;2024-03-08T09:30:58;99711.55;;;2.31;72.53
36138;BME280;67787;50.074;21.904;2024-03-08T09:33:27;99713.58;;;2.34;72.78
36138;BME280;67787;50.074;21.904;2024-03-08T09:35:56;99708.47;;;2.34;72.49
36138;BME280;67787;50.074;21.904;2024-03-08T09:38:30;99707.75;;;2.42;72.92
36138;BME280;67787;50.074;21.904;2024-03-08T09:40:58;99705.80;;;2.49;72.68
36138;BME280;67787;50.074;21.904;2024-03-08T09:43:29;99706.83;;;2.55;72.48
36138;BME280;67787;50.074;21.904;2024-03-08T09:45:58;99705.67;;;2.59;72.68
36138;BME280;67787;50.074;21.904;2024-03-08T09:48:26;99706.73;;;2.59;72.49
36138;BME280;67787;50.074;21.904;2024-03-08T09:50:55;99707.38;;;2.55;72.36
36138;BME280;67787;50.074;21.904;2024-03-08T09:53:24;99709.45;;;2.56;72.38
36138;BME280;67787;50.074;21.904;2024-03-08T09:55:52;99707.98;;;2.58;72.40
36138;BME280;67787;50.074;21.904;2024-03-08T09:58:20;99708.02;;;2.62;72.28
36138;BME280;67787;50.074;21.904;2024-03-08T10:01:03;99707.56;;;2.72;72.64
36138;BME280;67787;50.074;21.904;2024-03-08T10:03:33;99709.05;;;2.81;72.27
36138;BME280;67787;50.074;21.904;2024-03-08T10:06:01;99706.60;;;2.81;72.38
36138;BME280;67787;50.074;21.904;2024-03-08T10:08:29;99701.98;;;2.83;72.52
36138;BME280;67787;50.074;21.904;2024-03-08T10:10:57;99702.09;;;2.91;72.26
36138;BME280;67787;50.074;21.904;2024-03-08T10:13:28;99704.02;;;2.96;72.39
36138;BME280;67787;50.074;21.904;2024-03-08T10:16:00;99701.29;;;3.00;72.15
36138;BME280;67787;50.074;21.904;2024-03-08T10:18:27;99698.48;;;3.05;72.27
36138;BME280;67787;50.074;21.904;2024-03-08T10:21:06;99690.59;;;3.17;72.52
36138;BME280;67787;50.074;21.904;2024-03-08T10:23:36;99698.77;;;3.35;72.44
36138;BME280;67787;50.074;21.904;2024-03-08T10:26:15;99700.82;;;3.48;72.28
36138;BME280;67787;50.074;21.904;2024-03-08T10:28:45;99696.47;;;3.47;72.03
36138;BME280;67787;50.074;21.904;2024-03-08T10:31:17;99696.02;;;3.50;72.13
36138;BME280;67787;50.074;21.904;2024-03-08T10:33:47;99694.92;;;3.56;72.09
36138;BME280;67787;50.074;21.904;2024-03-08T10:36:15;99687.77;;;3.60;71.98
36138;BME280;67787;50.074;21.904;2024-03-08T10:38:44;99691.00;;;3.63;71.98
36138;BME280;67787;50.074;21.904;2024-03-08T10:41:16;99692.71;;;3.64;71.90
36138;BME280;67787;50.074;21.904;2024-03-08T10:44:15;99690.15;;;3.62;71.69
36138;BME280;67787;50.074;21.904;2024-03-08T10:47:02;99690.14;;;3.63;71.74
36138;BME280;67787;50.074;21.904;2024-03-08T10:49:38;99683.69;;;3.66;71.84
36138;BME280;67787;50.074;21.904;2024-03-08T10:52:08;99680.90;;;3.66;71.73
36138;BME280;67787;50.074;21.904;2024-03-08T10:54:37;99680.15;;;3.68;71.61
36138;BME280;67787;50.074;21.904;2024-03-08T10:57:13;99676.98;;;3.72;71.89
36138;BME280;67787;50.074;21.904;2024-03-08T10:59:43;99673.24;;;3.75;71.61
36138;BME280;67787;50.074;21.904;2024-03-08T11:09:11;99666.25;;;3.48;71.28
36138;BME280;67787;50.074;21.904;2024-03-08T11:12:37;99659.67;;;3.46;71.11
36138;BME280;67787;50.074;21.904;2024-03-08T11:15:12;99657.52;;;3.48;71.00
36138;BME280;67787;50.074;21.904;2024-03-08T11:17:46;99657.15;;;3.48;71.32
36138;BME280;67787;50.074;21.904;2024-03-08T11:20:17;99657.72;;;3.52;71.04
36138;BME280;67787;50.074;21.904;2024-03-08T11:23:00;99650.36;;;3.46;71.12
36138;BME280;67787;50.074;21.904;2024-03-08T11:25:41;99651.45;;;3.46;71.23
36138;BME280;67787;50.074;21.904;2024-03-08T11:28:19;99645.81;;;3.41;70.93
36138;BME280;67787;50.074;21.904;2024-03-08T11:33:28;99642.63;;;3.31;70.65
36138;BME280;67787;50.074;21.904;2024-03-08T11:36:11;99640.54;;;3.36;70.79
36138;BME280;67787;50.074;21.904;2024-03-08T11:38:44;99640.09;;;3.49;71.09
36138;BME280;67787;50.074;21.904;2024-03-08T11:41:20;99637.71;;;3.56;70.51
36138;BME280;67787;50.074;21.904;2024-03-08T11:43:50;99635.10;;;3.62;70.84
36138;BME280;67787;50.074;21.904;2024-03-08T11:46:28;99630.45;;;3.59;70.53
36138;BME280;67787;50.074;21.904;2024-03-08T11:48:57;99632.48;;;3.62;70.86
36138;BME280;67787;50.074;21.904;2024-03-08T11:51:26;99630.88;;;3.67;70.30
36138;BME280;67787;50.074;21.904;2024-03-08T11:53:54;99631.48;;;3.65;70.27
36138;BME280;67787;50.074;21.904;2024-03-08T11:56:23;99625.36;;;3.65;70.17
36138;BME280;67787;50.074;21.904;2024-03-08T11:58:55;99625.86;;;3.65;70.20
36138;BME280;67787;50.074;21.904;2024-03-08T12:01:27;99625.85;;;3.61;69.99
36138;BME280;67787;50.074;21.904;2024-03-08T12:03:57;99620.29;;;3.59;69.91
36138;BME280;67787;50.074;21.904;2024-03-08T12:06:36;99614.50;;;3.59;70.00
36138;BME280;67787;50.074;21.904;2024-03-08T12:09:11;99615.58;;;3.63;69.97
36138;BME280;67787;50.074;21.904;2024-03-08T12:11:40;99608.66;;;3.70;70.03
36138;BME280;67787;50.074;21.904;2024-03-08T12:14:08;99605.21;;;3.78;70.18
36138;BME280;67787;50.074;21.904;2024-03-08T12:16:37;99605.09;;;3.82;69.84
36138;BME280;67787;50.074;21.904;2024-03-08T12:19:05;99600.00;;;3.82;69.84
36138;BME280;67787;50.074;21.904;2024-03-08T12:21:35;99601.87;;;3.84;69.74
36138;BME280;67787;50.074;21.904;2024-03-08T12:26:31;99590.05;;;3.86;69.54
36138;BME280;67787;50.074;21.904;2024-03-08T12:29:16;99590.89;;;3.91;69.54
36138;BME280;67787;50.074;21.904;2024-03-08T12:31:46;99593.20;;;3.90;69.62
36138;BME280;67787;50.074;21.904;2024-03-08T12:34:15;99587.94;;;3.90;69.56
36138;BME280;67787;50.074;21.904;2024-03-08T12:36:50;99584.88;;;3.93;69.67
36138;BME280;67787;50.074;21.904;2024-03-08T12:39:20;99586.02;;;3.95;69.47
36138;BME280;67787;50.074;21.904;2024-03-08T12:41:56;99582.05;;;3.98;69.33
36138;BME280;67787;50.074;21.904;2024-03-08T12:44:25;99575.91;;;3.98;69.46
36138;BME280;67787;50.074;21.904;2024-03-08T12:46:53;99574.20;;;4.01;69.58
36138;BME280;67787;50.074;21.904;2024-03-08T12:49:22;99570.94;;;4.05;69.54
36138;BME280;67787;50.074;21.904;2024-03-08T12:51:50;99569.52;;;4.05;69.48
36138;BME280;67787;50.074;21.904;2024-03-08T12:54:20;99568.22;;;4.07;69.54
36138;BME280;67787;50.074;21.904;2024-03-08T12:56:52;99570.42;;;4.08;69.27
36138;BME280;67787;50.074;21.904;2024-03-08T12:59:22;99569.53;;;4.09;69.24
36138;BME280;67787;50.074;21.904;2024-03-08T13:01:51;99569.92;;;4.08;69.20
36138;BME280;67787;50.074;21.904;2024-03-08T13:04:21;99567.39;;;4.10;69.23
36138;BME280;67787;50.074;21.904;2024-03-08T13:06:50;99564.11;;;4.08;69.23
36138;BME280;67787;50.074;21.904;2024-03-08T13:09:22;99557.73;;;4.10;69.19
36138;BME280;67787;50.074;21.904;2024-03-08T13:11:50;99558.44;;;4.06;68.85
36138;BME280;67787;50.074;21.904;2024-03-08T13:14:18;99562.13;;;4.10;69.00
36138;BME280;67787;50.074;21.904;2024-03-08T13:16:47;99558.84;;;4.09;68.79
36138;BME280;67787;50.074;21.904;2024-03-08T13:19:16;99558.45;;;4.05;68.47
36138;BME280;67787;50.074;21.904;2024-03-08T13:21:44;99554.75;;;4.01;68.59
36138;BME280;67787;50.074;21.904;2024-03-08T13:24:17;99552.92;;;3.98;68.24
36138;BME280;67787;50.074;21.904;2024-03-08T13:26:47;99550.35;;;4.01;68.24
36138;BME280;67787;50.074;21.904;2024-03-08T13:29:15;99546.65;;;4.06;68.30